sensor_id;sensor_type;location;lat;lon;timestamp;pressure;altitude;pressure_sealevel;temperature;humidity
11912;BME280;6016;41.928;25.556;2023-07-13T00:00:01;99112.53;;;27.73;59.87
11912;BME280;6016;41.928;25.556;2023-07-13T00:02:33;99120.78;;;27.84;60.70
11912;BME280;6016;41.928;25.556;2023-07-13T00:05:00;99024.22;;;27.10;60.37
11912;BME280;6016;41.928;25.556;2023-07-13T00:07:27;99104.09;;;27.70;59.93
11912;BME280;6016;41.928;25.556;2023-07-13T00:09:53;99113.16;;;27.80;60.77
11912;BME280;6016;41.928;25.556;2023-07-13T00:12:25;99116.94;;;27.79;60.05
11912;BME280;6016;41.928;25.556;2023-07-13T00:14:53;99017.56;;;27.18;59.76
11912;BME280;6016;41.928;25.556;2023-07-13T00:17:21;99110.97;;;27.77;60.55
11912;BME280;6016;41.928;25.556;2023-07-13T00:19:47;99100.31;;;27.71;61.05
11912;BME280;6016;41.928;25.556;2023-07-13T00:22:14;99113.88;;;27.71;60.30
11912;BME280;6016;41.928;25.556;2023-07-13T00:24:43;99112.22;;;27.70;60.28
11912;BME280;6016;41.928;25.556;2023-07-13T00:27:10;99117.66;;;27.70;59.89
11912;BME280;6016;41.928;25.556;2023-07-13T00:29:37;98929.47;;;26.49;60.23
11912;BME280;6016;41.928;25.556;2023-07-13T00:32:06;99115.63;;;27.60;60.53
11912;BME280;6016;41.928;25.556;2023-07-13T00:34:36;99113.97;;;27.59;60.30
11912;BME280;6016;41.928;25.556;2023-07-13T00:37:03;99068.31;;;27.28;60.84
11912;BME280;6016;41.928;25.556;2023-07-13T00:39:32;99092.59;;;27.40;61.57
11912;BME280;6016;41.928;25.556;2023-07-13T00:41:59;99099.22;;;27.49;61.03
11912;BME280;6016;41.928;25.556;2023-07-13T00:44:26;99102.75;;;27.50;60.83
11912;BME280;6016;41.928;25.556;2023-07-13T00:46:53;99001.38;;;26.84;61.14
11912;BME280;6016;41.928;25.556;2023-07-13T00:49:22;99096.19;;;27.46;61.28
11912;BME280;6016;41.928;25.556;2023-07-13T00:51:54;99097.75;;;27.42;61.68
11912;BME280;6016;41.928;25.556;2023-07-13T00:54:24;99059.00;;;27.19;61.54
11912;BME280;6016;41.928;25.556;2023-07-13T00:56:55;99052.88;;;27.06;62.24
11912;BME280;6016;41.928;25.556;2023-07-13T00:59:23;99066.81;;;27.15;61.82
11912;BME280;6016;41.928;25.556;2023-07-13T01:01:49;99091.44;;;27.36;62.14
11912;BME280;6016;41.928;25.556;2023-07-13T01:04:17;99096.81;;;27.31;61.50
11912;BME280;6016;41.928;25.556;2023-07-13T01:06:45;99093.53;;;27.29;62.04
11912;BME280;6016;41.928;25.556;2023-07-13T01:09:14;99098.38;;;27.27;62.73
11912;BME280;6016;41.928;25.556;2023-07-13T01:11:42;99094.78;;;27.21;63.17
11912;BME280;6016;41.928;25.556;2023-07-13T01:14:10;99094.47;;;27.17;62.64
11912;BME280;6016;41.928;25.556;2023-07-13T01:16:39;99047.31;;;26.79;63.47
11912;BME280;6016;41.928;25.556;2023-07-13T01:19:19;99094.63;;;27.10;63.87
11912;BME280;6016;41.928;25.556;2023-07-13T01:21:52;99020.56;;;26.26;63.17
11912;BME280;6016;41.928;25.556;2023-07-13T01:24:19;99090.38;;;26.98;63.65
11912;BME280;6016;41.928;25.556;2023-07-13T01:26:46;98912.53;;;25.85;63.11
11912;BME280;6016;41.928;25.556;2023-07-13T01:29:12;99095.78;;;26.98;63.92
11912;BME280;6016;41.928;25.556;2023-07-13T01:31:39;99082.75;;;26.94;64.07
11912;BME280;6016;41.928;25.556;2023-07-13T01:34:06;99083.03;;;26.93;63.64
11912;BME280;6016;41.928;25.556;2023-07-13T01:36:33;99078.66;;;26.92;63.57
11912;BME280;6016;41.928;25.556;2023-07-13T01:39:03;99010.19;;;26.40;63.28
11912;BME280;6016;41.928;25.556;2023-07-13T01:41:30;99078.91;;;26.90;64.00
11912;BME280;6016;41.928;25.556;2023-07-13T01:43:57;99079.63;;;26.86;64.45
11912;BME280;6016;41.928;25.556;2023-07-13T01:46:24;99060.78;;;26.74;64.51
11912;BME280;6016;41.928;25.556;2023-07-13T01:48:51;99073.56;;;26.78;64.69
11912;BME280;6016;41.928;25.556;2023-07-13T01:51:18;99070.44;;;26.69;64.64
11912;BME280;6016;41.928;25.556;2023-07-13T01:53:46;99081.28;;;26.69;64.49
11912;BME280;6016;41.928;25.556;2023-07-13T01:56:14;99080.47;;;26.69;64.72
11912;BME280;6016;41.928;25.556;2023-07-13T01:58:41;99069.38;;;26.53;65.10
11912;BME280;6016;41.928;25.556;2023-07-13T02:01:08;98961.50;;;25.89;64.52
11912;BME280;6016;41.928;25.556;2023-07-13T02:03:34;99081.22;;;26.64;64.61
11912;BME280;6016;41.928;25.556;2023-07-13T02:06:01;99045.97;;;26.25;65.77
11912;BME280;6016;41.928;25.556;2023-07-13T02:08:28;98903.16;;;25.29;64.93
11912;BME280;6016;41.928;25.556;2023-07-13T02:10:55;99094.91;;;26.58;64.56
11912;BME280;6016;41.928;25.556;2023-07-13T02:13:24;99058.47;;;26.31;64.59
11912;BME280;6016;41.928;25.556;2023-07-13T02:15:51;99007.34;;;25.83;64.70
11912;BME280;6016;41.928;25.556;2023-07-13T02:18:18;99089.81;;;26.44;64.55
11912;BME280;6016;41.928;25.556;2023-07-13T02:20:45;99088.91;;;26.38;65.31
11912;BME280;6016;41.928;25.556;2023-07-13T02:23:12;99114.72;;;26.46;66.24
11912;BME280;6016;41.928;25.556;2023-07-13T02:25:39;99109.22;;;26.41;66.47
11912;BME280;6016;41.928;25.556;2023-07-13T02:28:06;99100.13;;;26.30;66.09
11912;BME280;6016;41.928;25.556;2023-07-13T02:30:35;98995.41;;;25.38;66.14
11912;BME280;6016;41.928;25.556;2023-07-13T02:33:02;99116.03;;;26.44;65.82
11912;BME280;6016;41.928;25.556;2023-07-13T02:35:29;99116.03;;;26.44;66.43
11912;BME280;6016;41.928;25.556;2023-07-13T02:37:55;99117.69;;;26.45;66.83
11912;BME280;6016;41.928;25.556;2023-07-13T02:40:22;99121.44;;;26.44;65.93
11912;BME280;6016;41.928;25.556;2023-07-13T02:42:49;99103.97;;;26.34;65.13
11912;BME280;6016;41.928;25.556;2023-07-13T02:45:16;99082.66;;;26.21;65.31
11912;BME280;6016;41.928;25.556;2023-07-13T02:47:44;99073.66;;;26.03;65.10
11912;BME280;6016;41.928;25.556;2023-07-13T02:50:11;99122.19;;;26.39;65.72
11912;BME280;6016;41.928;25.556;2023-07-13T02:52:38;99123.00;;;26.39;65.44
11912;BME280;6016;41.928;25.556;2023-07-13T02:55:05;99125.72;;;26.39;65.80
11912;BME280;6016;41.928;25.556;2023-07-13T02:57:32;99134.31;;;26.36;65.68
11912;BME280;6016;41.928;25.556;2023-07-13T02:59:59;99039.34;;;25.75;65.53
11912;BME280;6016;41.928;25.556;2023-07-13T03:02:26;99122.91;;;26.34;65.26
11912;BME280;6016;41.928;25.556;2023-07-13T03:04:55;98912.06;;;25.01;64.92
11912;BME280;6016;41.928;25.556;2023-07-13T03:07:22;99119.13;;;26.35;65.44
11912;BME280;6016;41.928;25.556;2023-07-13T03:09:49;99011.13;;;25.53;65.29
11912;BME280;6016;41.928;25.556;2023-07-13T03:12:15;99120.19;;;26.34;65.18
11912;BME280;6016;41.928;25.556;2023-07-13T03:14:42;99121.53;;;26.32;65.08
11912;BME280;6016;41.928;25.556;2023-07-13T03:17:09;99121.75;;;26.30;65.64
11912;BME280;6016;41.928;25.556;2023-07-13T03:19:36;99126.25;;;26.24;65.88
11912;BME280;6016;41.928;25.556;2023-07-13T03:22:05;99110.78;;;26.08;65.56
11912;BME280;6016;41.928;25.556;2023-07-13T03:24:32;99123.81;;;26.11;65.53
11912;BME280;6016;41.928;25.556;2023-07-13T03:27:01;99138.25;;;26.17;65.88
11912;BME280;6016;41.928;25.556;2023-07-13T03:29:28;99139.09;;;26.17;65.52
11912;BME280;6016;41.928;25.556;2023-07-13T03:31:54;99092.69;;;25.79;65.54
11912;BME280;6016;41.928;25.556;2023-07-13T03:34:21;99135.78;;;26.15;65.46
11912;BME280;6016;41.928;25.556;2023-07-13T03:36:48;99134.97;;;26.15;65.35
11912;BME280;6016;41.928;25.556;2023-07-13T03:39:16;99140.13;;;26.16;65.51
11912;BME280;6016;41.928;25.556;2023-07-13T03:41:43;99146.59;;;26.15;65.28
11912;BME280;6016;41.928;25.556;2023-07-13T03:44:10;99131.19;;;26.16;65.39
11912;BME280;6016;41.928;25.556;2023-07-13T03:46:37;99131.69;;;26.12;65.43
11912;BME280;6016;41.928;25.556;2023-07-13T03:49:05;99061.88;;;25.51;65.10
11912;BME280;6016;41.928;25.556;2023-07-13T03:51:32;99097.06;;;25.97;65.41
11912;BME280;6016;41.928;25.556;2023-07-13T03:53:59;99140.13;;;26.16;65.09
11912;BME280;6016;41.928;25.556;2023-07-13T03:56:27;99140.88;;;26.11;65.59
11912;BME280;6016;41.928;25.556;2023-07-13T03:58:54;99128.09;;;25.95;65.76
11912;BME280;6016;41.928;25.556;2023-07-13T04:01:22;99136.41;;;26.05;65.95
11912;BME280;6016;41.928;25.556;2023-07-13T04:03:50;99089.53;;;25.70;65.99
11912;BME280;6016;41.928;25.556;2023-07-13T04:06:19;98910.41;;;24.59;66.27
11912;BME280;6016;41.928;25.556;2023-07-13T04:08:48;99052.38;;;25.49;66.77
11912;BME280;6016;41.928;25.556;2023-07-13T04:11:16;99151.34;;;26.08;66.97
11912;BME280;6016;41.928;25.556;2023-07-13T04:13:45;99148.63;;;26.08;66.35
11912;BME280;6016;41.928;25.556;2023-07-13T04:16:12;99113.00;;;25.82;66.86
11912;BME280;6016;41.928;25.556;2023-07-13T04:18:39;99108.16;;;25.84;66.51
11912;BME280;6016;41.928;25.556;2023-07-13T04:21:07;99150.28;;;26.09;66.63
11912;BME280;6016;41.928;25.556;2023-07-13T04:23:34;99148.16;;;26.11;66.71
11912;BME280;6016;41.928;25.556;2023-07-13T04:26:00;99145.22;;;26.12;66.81
11912;BME280;6016;41.928;25.556;2023-07-13T04:28:27;99145.78;;;26.15;66.56
11912;BME280;6016;41.928;25.556;2023-07-13T04:30:55;99124.53;;;26.06;66.77
11912;BME280;6016;41.928;25.556;2023-07-13T04:33:23;99142.72;;;26.23;66.92
11912;BME280;6016;41.928;25.556;2023-07-13T04:35:50;99146.81;;;26.25;66.62
11912;BME280;6016;41.928;25.556;2023-07-13T04:38:19;99144.72;;;26.16;67.14
11912;BME280;6016;41.928;25.556;2023-07-13T04:40:47;98972.38;;;25.07;67.31
11912;BME280;6016;41.928;25.556;2023-07-13T04:43:14;99150.44;;;26.31;66.41
11912;BME280;6016;41.928;25.556;2023-07-13T04:45:41;99152.41;;;26.36;65.71
11912;BME280;6016;41.928;25.556;2023-07-13T04:48:09;99137.75;;;26.32;67.47
11912;BME280;6016;41.928;25.556;2023-07-13T04:50:37;99075.75;;;25.84;67.69
11912;BME280;6016;41.928;25.556;2023-07-13T04:53:05;99030.47;;;25.62;68.07
11912;BME280;6016;41.928;25.556;2023-07-13T04:55:32;99154.78;;;26.32;68.42
11912;BME280;6016;41.928;25.556;2023-07-13T04:57:59;99074.88;;;25.95;68.85
11912;BME280;6016;41.928;25.556;2023-07-13T05:00:28;99161.28;;;26.48;69.12
11912;BME280;6016;41.928;25.556;2023-07-13T05:02:55;99171.88;;;26.50;68.35
11912;BME280;6016;41.928;25.556;2023-07-13T05:05:24;99165.16;;;26.52;68.45
11912;BME280;6016;41.928;25.556;2023-07-13T05:07:52;99149.00;;;26.40;67.80
11912;BME280;6016;41.928;25.556;2023-07-13T05:10:19;99128.81;;;26.31;67.45
11912;BME280;6016;41.928;25.556;2023-07-13T05:12:46;99166.63;;;26.60;68.06
11912;BME280;6016;41.928;25.556;2023-07-13T05:15:12;99116.91;;;26.32;66.71
11912;BME280;6016;41.928;25.556;2023-07-13T05:17:39;99165.09;;;26.64;67.04
11912;BME280;6016;41.928;25.556;2023-07-13T05:20:07;99125.22;;;26.43;67.13
11912;BME280;6016;41.928;25.556;2023-07-13T05:22:35;99162.81;;;26.73;67.10
11912;BME280;6016;41.928;25.556;2023-07-13T05:25:05;99065.75;;;26.13;67.03
11912;BME280;6016;41.928;25.556;2023-07-13T05:27:33;99166.97;;;26.81;67.61
11912;BME280;6016;41.928;25.556;2023-07-13T05:30:00;99168.97;;;26.86;66.76
11912;BME280;6016;41.928;25.556;2023-07-13T05:32:26;99175.81;;;26.88;66.95
11912;BME280;6016;41.928;25.556;2023-07-13T05:34:53;99178.03;;;26.91;66.04
11912;BME280;6016;41.928;25.556;2023-07-13T05:37:20;99176.44;;;26.95;64.89
11912;BME280;6016;41.928;25.556;2023-07-13T05:39:48;99175.94;;;26.99;64.33
11912;BME280;6016;41.928;25.556;2023-07-13T05:42:15;99184.97;;;27.04;64.20
11912;BME280;6016;41.928;25.556;2023-07-13T05:44:42;99171.59;;;26.98;63.82
11912;BME280;6016;41.928;25.556;2023-07-13T05:47:08;99145.13;;;27.00;63.27
11912;BME280;6016;41.928;25.556;2023-07-13T05:49:35;99175.22;;;27.20;63.45
11912;BME280;6016;41.928;25.556;2023-07-13T05:52:02;99178.81;;;27.26;63.55
11912;BME280;6016;41.928;25.556;2023-07-13T05:54:29;99172.31;;;27.27;63.13
11912;BME280;6016;41.928;25.556;2023-07-13T05:56:57;99165.34;;;27.31;63.65
11912;BME280;6016;41.928;25.556;2023-07-13T05:59:24;99174.69;;;27.41;63.10
11912;BME280;6016;41.928;25.556;2023-07-13T06:01:51;99167.44;;;27.46;62.83
11912;BME280;6016;41.928;25.556;2023-07-13T06:04:18;99168.28;;;27.47;62.65
11912;BME280;6016;41.928;25.556;2023-07-13T06:06:45;99174.94;;;27.56;62.64
11912;BME280;6016;41.928;25.556;2023-07-13T06:09:12;99155.72;;;27.41;63.15
11912;BME280;6016;41.928;25.556;2023-07-13T06:11:39;99173.41;;;27.65;62.98
11912;BME280;6016;41.928;25.556;2023-07-13T06:14:07;99170.78;;;27.71;62.53
11912;BME280;6016;41.928;25.556;2023-07-13T06:16:34;99169.16;;;27.70;62.05
11912;BME280;6016;41.928;25.556;2023-07-13T06:19:01;99118.47;;;27.31;61.58
11912;BME280;6016;41.928;25.556;2023-07-13T06:21:27;99175.28;;;27.82;61.97
11912;BME280;6016;41.928;25.556;2023-07-13T06:23:54;99161.41;;;27.78;60.28
11912;BME280;6016;41.928;25.556;2023-07-13T06:26:21;99173.50;;;27.93;60.02
11912;BME280;6016;41.928;25.556;2023-07-13T06:28:48;99176.25;;;27.98;59.31
11912;BME280;6016;41.928;25.556;2023-07-13T06:31:16;99177.13;;;28.04;59.65
11912;BME280;6016;41.928;25.556;2023-07-13T06:33:43;99172.03;;;28.07;59.60
11912;BME280;6016;41.928;25.556;2023-07-13T06:36:10;99148.38;;;28.03;58.97
11912;BME280;6016;41.928;25.556;2023-07-13T06:38:37;99175.75;;;28.24;59.24
11912;BME280;6016;41.928;25.556;2023-07-13T06:41:05;99087.06;;;27.74;58.95
11912;BME280;6016;41.928;25.556;2023-07-13T06:43:32;99131.34;;;28.07;59.12
11912;BME280;6016;41.928;25.556;2023-07-13T06:45:59;99090.16;;;27.83;59.41
11912;BME280;6016;41.928;25.556;2023-07-13T06:48:28;99140.84;;;28.32;58.93
11912;BME280;6016;41.928;25.556;2023-07-13T06:50:55;99108.06;;;28.12;58.98
11912;BME280;6016;41.928;25.556;2023-07-13T06:53:22;99152.47;;;28.55;59.11
11912;BME280;6016;41.928;25.556;2023-07-13T06:55:49;99156.38;;;28.70;58.53
11912;BME280;6016;41.928;25.556;2023-07-13T06:58:17;99156.16;;;28.76;58.92
11912;BME280;6016;41.928;25.556;2023-07-13T07:00:45;99136.31;;;28.71;58.67
11912;BME280;6016;41.928;25.556;2023-07-13T07:03:12;99154.91;;;28.84;58.25
11912;BME280;6016;41.928;25.556;2023-07-13T07:05:40;99145.44;;;28.92;58.27
11912;BME280;6016;41.928;25.556;2023-07-13T07:08:07;99097.19;;;28.67;58.14
11912;BME280;6016;41.928;25.556;2023-07-13T07:10:34;99134.59;;;28.92;57.54
11912;BME280;6016;41.928;25.556;2023-07-13T07:13:01;99122.38;;;28.95;57.67
11912;BME280;6016;41.928;25.556;2023-07-13T07:15:29;99151.34;;;29.16;56.25
11912;BME280;6016;41.928;25.556;2023-07-13T07:17:56;99146.75;;;29.22;57.27
11912;BME280;6016;41.928;25.556;2023-07-13T07:20:23;99148.44;;;29.33;56.66
11912;BME280;6016;41.928;25.556;2023-07-13T07:22:51;99120.66;;;29.21;56.59
11912;BME280;6016;41.928;25.556;2023-07-13T07:25:18;99140.34;;;29.44;56.39
11912;BME280;6016;41.928;25.556;2023-07-13T07:27:45;99100.03;;;29.30;56.67
11912;BME280;6016;41.928;25.556;2023-07-13T07:30:13;99140.16;;;29.56;55.23
11912;BME280;6016;41.928;25.556;2023-07-13T07:32:40;99022.59;;;28.74;55.20
11912;BME280;6016;41.928;25.556;2023-07-13T07:35:08;99148.91;;;29.73;55.41
11912;BME280;6016;41.928;25.556;2023-07-13T07:37:35;99110.31;;;29.66;54.71
11912;BME280;6016;41.928;25.556;2023-07-13T07:40:04;99116.34;;;29.89;52.82
11912;BME280;6016;41.928;25.556;2023-07-13T07:42:31;99136.31;;;30.15;53.65
11912;BME280;6016;41.928;25.556;2023-07-13T07:44:59;99138.22;;;30.25;53.70
11912;BME280;6016;41.928;25.556;2023-07-13T07:47:26;99140.41;;;30.34;53.32
11912;BME280;6016;41.928;25.556;2023-07-13T07:49:53;99124.34;;;30.32;52.51
11912;BME280;6016;41.928;25.556;2023-07-13T07:52:19;99115.38;;;30.31;53.65
11912;BME280;6016;41.928;25.556;2023-07-13T07:54:46;99146.19;;;30.63;52.70
11912;BME280;6016;41.928;25.556;2023-07-13T07:57:14;99135.81;;;30.70;51.90
11912;BME280;6016;41.928;25.556;2023-07-13T07:59:41;99137.75;;;30.80;51.88
11912;BME280;6016;41.928;25.556;2023-07-13T08:02:10;99099.09;;;30.68;51.83
11912;BME280;6016;41.928;25.556;2023-07-13T08:04:37;99136.38;;;30.98;51.86
11912;BME280;6016;41.928;25.556;2023-07-13T08:07:04;99131.97;;;31.08;51.10
11912;BME280;6016;41.928;25.556;2023-07-13T08:09:31;99061.75;;;30.68;50.44
11912;BME280;6016;41.928;25.556;2023-07-13T08:11:58;99115.91;;;31.16;49.83
11912;BME280;6016;41.928;25.556;2023-07-13T08:14:27;99139.00;;;31.45;50.69
11912;BME280;6016;41.928;25.556;2023-07-13T08:16:53;99126.69;;;31.58;49.60
11912;BME280;6016;41.928;25.556;2023-07-13T08:19:20;99138.09;;;31.65;49.80
11912;BME280;6016;41.928;25.556;2023-07-13T08:21:47;99139.69;;;31.77;50.05
11912;BME280;6016;41.928;25.556;2023-07-13T08:24:14;99117.38;;;31.64;49.06
11912;BME280;6016;41.928;25.556;2023-07-13T08:26:44;99134.53;;;31.80;48.97
11912;BME280;6016;41.928;25.556;2023-07-13T08:29:10;99146.75;;;31.88;48.16
11912;BME280;6016;41.928;25.556;2023-07-13T08:31:39;99134.22;;;31.87;48.33
11912;BME280;6016;41.928;25.556;2023-07-13T08:34:05;99097.19;;;31.65;49.25
11912;BME280;6016;41.928;25.556;2023-07-13T08:36:32;99132.53;;;31.96;47.14
11912;BME280;6016;41.928;25.556;2023-07-13T08:38:59;99130.81;;;32.11;47.87
11912;BME280;6016;41.928;25.556;2023-07-13T08:41:26;99129.66;;;32.22;49.99
11912;BME280;6016;41.928;25.556;2023-07-13T08:43:58;99076.13;;;31.81;48.11
11912;BME280;6016;41.928;25.556;2023-07-13T08:46:26;99138.00;;;32.41;46.94
11912;BME280;6016;41.928;25.556;2023-07-13T08:48:58;99133.31;;;32.47;48.19
11912;BME280;6016;41.928;25.556;2023-07-13T08:51:35;99134.56;;;32.60;48.21
11912;BME280;6016;41.928;25.556;2023-07-13T08:54:12;99140.28;;;32.64;46.78
11912;BME280;6016;41.928;25.556;2023-07-13T08:56:41;99133.16;;;32.68;46.01
11912;BME280;6016;41.928;25.556;2023-07-13T08:59:11;99093.38;;;32.57;48.14
11912;BME280;6016;41.928;25.556;2023-07-13T09:01:52;99127.25;;;32.85;47.82
11912;BME280;6016;41.928;25.556;2023-07-13T09:04:25;99111.69;;;32.86;49.13
11912;BME280;6016;41.928;25.556;2023-07-13T09:07:01;99119.22;;;32.99;46.20
11912;BME280;6016;41.928;25.556;2023-07-13T09:09:41;99115.00;;;33.12;46.36
11912;BME280;6016;41.928;25.556;2023-07-13T09:12:15;99124.81;;;33.37;48.04
11912;BME280;6016;41.928;25.556;2023-07-13T09:14:47;99089.50;;;33.17;48.34
11912;BME280;6016;41.928;25.556;2023-07-13T09:17:18;99114.56;;;33.53;45.97
11912;BME280;6016;41.928;25.556;2023-07-13T09:19:51;99060.41;;;33.26;45.12
11912;BME280;6016;41.928;25.556;2023-07-13T09:22:20;99108.25;;;33.53;45.04
11912;BME280;6016;41.928;25.556;2023-07-13T09:24:53;99104.16;;;33.75;45.38
11912;BME280;6016;41.928;25.556;2023-07-13T09:27:24;99082.03;;;33.71;44.35
11912;BME280;6016;41.928;25.556;2023-07-13T09:30:02;99093.88;;;34.05;44.38
11912;BME280;6016;41.928;25.556;2023-07-13T09:32:31;99045.72;;;33.85;45.12
11912;BME280;6016;41.928;25.556;2023-07-13T09:35:00;99099.56;;;34.28;44.44
11912;BME280;6016;41.928;25.556;2023-07-13T09:37:31;99068.34;;;34.09;43.41
11912;BME280;6016;41.928;25.556;2023-07-13T09:39:59;99092.91;;;34.34;42.73
11912;BME280;6016;41.928;25.556;2023-07-13T09:42:31;99086.44;;;34.44;44.00
11912;BME280;6016;41.928;25.556;2023-07-13T09:45:00;99082.13;;;34.57;44.23
11912;BME280;6016;41.928;25.556;2023-07-13T09:47:30;99073.22;;;34.65;42.32
11912;BME280;6016;41.928;25.556;2023-07-13T09:50:01;99036.69;;;34.36;43.34
11912;BME280;6016;41.928;25.556;2023-07-13T09:52:41;99073.84;;;34.76;38.87
11912;BME280;6016;41.928;25.556;2023-07-13T09:55:24;99069.41;;;34.94;38.71
11912;BME280;6016;41.928;25.556;2023-07-13T09:57:51;99031.22;;;34.70;40.62
11912;BME280;6016;41.928;25.556;2023-07-13T10:00:21;99027.25;;;34.76;38.58
11912;BME280;6016;41.928;25.556;2023-07-13T10:02:58;99040.97;;;34.90;38.36
11912;BME280;6016;41.928;25.556;2023-07-13T10:05:26;99052.53;;;35.01;38.97
11912;BME280;6016;41.928;25.556;2023-07-13T10:07:56;99016.91;;;34.87;38.13
11912;BME280;6016;41.928;25.556;2023-07-13T10:10:23;99052.78;;;35.04;38.44
11912;BME280;6016;41.928;25.556;2023-07-13T10:12:50;99045.88;;;35.07;38.09
11912;BME280;6016;41.928;25.556;2023-07-13T10:15:19;99047.81;;;35.06;39.26
11912;BME280;6016;41.928;25.556;2023-07-13T10:17:48;99034.28;;;35.10;37.39
11912;BME280;6016;41.928;25.556;2023-07-13T10:20:16;99025.25;;;35.24;38.52
11912;BME280;6016;41.928;25.556;2023-07-13T10:22:53;99025.44;;;35.27;36.87
11912;BME280;6016;41.928;25.556;2023-07-13T10:25:23;98995.69;;;35.20;37.39
11912;BME280;6016;41.928;25.556;2023-07-13T10:27:53;98996.53;;;35.21;36.18
11912;BME280;6016;41.928;25.556;2023-07-13T10:30:23;99005.19;;;35.37;37.72
11912;BME280;6016;41.928;25.556;2023-07-13T10:32:51;98924.34;;;34.84;38.64
11912;BME280;6016;41.928;25.556;2023-07-13T10:35:20;99001.06;;;35.26;37.62
11912;BME280;6016;41.928;25.556;2023-07-13T10:37:52;99005.31;;;35.32;38.44
11912;BME280;6016;41.928;25.556;2023-07-13T10:40:25;99005.31;;;35.32;39.70
11912;BME280;6016;41.928;25.556;2023-07-13T10:42:57;98948.34;;;35.01;40.42
11912;BME280;6016;41.928;25.556;2023-07-13T10:45:27;98986.69;;;35.43;38.70
11912;BME280;6016;41.928;25.556;2023-07-13T10:47:56;98993.31;;;35.42;38.07
11912;BME280;6016;41.928;25.556;2023-07-13T10:50:25;98995.75;;;35.43;38.97
11912;BME280;6016;41.928;25.556;2023-07-13T10:52:55;98984.97;;;35.47;37.28
11912;BME280;6016;41.928;25.556;2023-07-13T10:55:37;98965.66;;;35.38;38.69
11912;BME280;6016;41.928;25.556;2023-07-13T10:58:14;98922.78;;;35.05;39.29
11912;BME280;6016;41.928;25.556;2023-07-13T11:00:47;98955.53;;;35.39;37.40
11912;BME280;6016;41.928;25.556;2023-07-13T11:03:17;98991.25;;;35.61;36.80
11912;BME280;6016;41.928;25.556;2023-07-13T11:05:48;98918.00;;;35.11;37.76
11912;BME280;6016;41.928;25.556;2023-07-13T11:08:20;98998.22;;;35.68;35.20
11912;BME280;6016;41.928;25.556;2023-07-13T11:10:53;98997.44;;;35.67;35.21
11912;BME280;6016;41.928;25.556;2023-07-13T11:13:38;98990.44;;;35.84;35.55
11912;BME280;6016;41.928;25.556;2023-07-13T11:16:34;98957.94;;;35.77;34.56
11912;BME280;6016;41.928;25.556;2023-07-13T11:19:25;98983.59;;;35.95;37.02
11912;BME280;6016;41.928;25.556;2023-07-13T11:22:03;98979.22;;;35.94;33.98
11912;BME280;6016;41.928;25.556;2023-07-13T11:24:48;98976.41;;;36.08;35.06
11912;BME280;6016;41.928;25.556;2023-07-13T11:27:24;98943.66;;;35.89;35.54
11912;BME280;6016;41.928;25.556;2023-07-13T11:30:07;98984.88;;;36.21;33.71
11912;BME280;6016;41.928;25.556;2023-07-13T11:32:34;98931.22;;;35.91;35.60
11912;BME280;6016;41.928;25.556;2023-07-13T11:35:02;98937.59;;;36.01;34.26
11912;BME280;6016;41.928;25.556;2023-07-13T11:37:29;98966.69;;;36.25;35.12
11912;BME280;6016;41.928;25.556;2023-07-13T11:39:58;98966.00;;;36.19;37.45
11912;BME280;6016;41.928;25.556;2023-07-13T11:42:25;98946.56;;;35.93;35.79
11912;BME280;6016;41.928;25.556;2023-07-13T11:44:52;98830.94;;;35.17;36.98
11912;BME280;6016;41.928;25.556;2023-07-13T11:47:22;98920.25;;;35.91;35.01
11912;BME280;6016;41.928;25.556;2023-07-13T11:49:53;98924.25;;;35.85;36.69
11912;BME280;6016;41.928;25.556;2023-07-13T11:52:27;98895.31;;;35.56;36.01
11912;BME280;6016;41.928;25.556;2023-07-13T11:54:57;98959.50;;;36.15;35.90
11912;BME280;6016;41.928;25.556;2023-07-13T11:57:29;98950.81;;;36.22;33.51
11912;BME280;6016;41.928;25.556;2023-07-13T11:59:58;98837.50;;;35.53;34.42
11912;BME280;6016;41.928;25.556;2023-07-13T12:02:28;98951.03;;;36.34;34.12
11912;BME280;6016;41.928;25.556;2023-07-13T12:04:56;98950.72;;;36.36;34.79
11912;BME280;6016;41.928;25.556;2023-07-13T12:07:24;98945.72;;;36.38;34.88
11912;BME280;6016;41.928;25.556;2023-07-13T12:09:50;98952.88;;;36.47;34.47
11912;BME280;6016;41.928;25.556;2023-07-13T12:12:21;98947.78;;;36.64;32.83
11912;BME280;6016;41.928;25.556;2023-07-13T12:14:51;98949.38;;;36.65;32.88
11912;BME280;6016;41.928;25.556;2023-07-13T12:17:20;98939.72;;;36.67;34.32
11912;BME280;6016;41.928;25.556;2023-07-13T12:19:47;98919.31;;;36.59;35.62
11912;BME280;6016;41.928;25.556;2023-07-13T12:22:16;98937.13;;;36.71;35.71
11912;BME280;6016;41.928;25.556;2023-07-13T12:24:45;98826.44;;;35.98;35.81
11912;BME280;6016;41.928;25.556;2023-07-13T12:27:21;98924.63;;;36.56;35.97
11912;BME280;6016;41.928;25.556;2023-07-13T12:29:50;98926.88;;;36.54;35.25
11912;BME280;6016;41.928;25.556;2023-07-13T12:32:19;98930.31;;;36.59;34.74
11912;BME280;6016;41.928;25.556;2023-07-13T12:34:53;98918.19;;;36.60;35.70
11912;BME280;6016;41.928;25.556;2023-07-13T12:37:21;98915.78;;;36.68;35.58
11912;BME280;6016;41.928;25.556;2023-07-13T12:39:49;98880.31;;;36.49;34.91
11912;BME280;6016;41.928;25.556;2023-07-13T12:42:23;98912.22;;;36.67;36.36
11912;BME280;6016;41.928;25.556;2023-07-13T12:44:54;98907.69;;;36.63;33.40
11912;BME280;6016;41.928;25.556;2023-07-13T12:47:23;98897.50;;;36.63;34.14
11912;BME280;6016;41.928;25.556;2023-07-13T12:49:54;98821.69;;;36.13;35.89
11912;BME280;6016;41.928;25.556;2023-07-13T12:52:22;98891.53;;;36.70;34.24
11912;BME280;6016;41.928;25.556;2023-07-13T12:54:53;98890.41;;;36.71;35.13
11912;BME280;6016;41.928;25.556;2023-07-13T12:57:24;98865.31;;;36.55;32.48
11912;BME280;6016;41.928;25.556;2023-07-13T12:59:52;98882.63;;;36.73;32.81
11912;BME280;6016;41.928;25.556;2023-07-13T13:02:28;98887.34;;;36.81;34.04
11912;BME280;6016;41.928;25.556;2023-07-13T13:04:56;98859.19;;;36.67;33.57
11912;BME280;6016;41.928;25.556;2023-07-13T13:07:24;98855.63;;;36.66;34.75